Time;durP1;ratioP1;P1;durP2;ratioP2;P2;SDS_P1;SDS_P2;PMS_P1;PMS_P2;Temp;Humidity;BMP_temperature;BMP_pressure;BME280_temperature;BME280_humidity;BME280_pressure;Samples;Min_cycle;Max_cycle;Signal;HPM_P1;HPM_P2
2023/09/29 00:00:13;;;;;;;13.13;3.50;;;17.70;92.30;;;18.05;57.26;95424.03;5019032;28;20481;-62
2023/09/29 00:02:40;;;;;;;18.03;4.03;;;17.70;92.50;;;18.03;57.67;95425.19;5019431;28;20536;-59
2023/09/29 00:05:09;;;;;;;6.23;3.50;;;17.60;92.40;;;18.03;57.36;95430.53;5029789;28;20519;-62
2023/09/29 00:07:37;;;;;;;9.20;4.00;;;17.60;92.70;;;18.01;57.97;95419.22;5022119;28;20456;-59
2023/09/29 00:10:08;;;;;;;7.33;3.37;;;17.60;92.70;;;18.00;57.96;95430.88;5023723;28;20478;-62
2023/09/29 00:12:36;;;;;;;11.83;3.33;;;17.60;92.70;;;17.98;58.01;95420.38;5023202;28;20835;-58
2023/09/29 00:15:06;;;;;;;22.37;3.23;;;17.60;92.70;;;17.95;57.72;95425.25;5021808;28;20473;-58
2023/09/29 00:17:33;;;;;;;17.90;4.17;;;17.50;92.70;;;17.93;58.21;95422.75;5021333;28;20457;-62
2023/09/29 00:20:00;;;;;;;5.40;3.07;;;17.50;92.70;;;17.91;57.76;95430.91;5025853;28;20527;-58
2023/09/29 00:22:29;;;;;;;5.83;2.70;;;17.50;92.70;;;17.88;58.14;95422.41;5018781;28;20504;-58
2023/09/29 00:24:56;;;;;;;8.90;3.07;;;17.50;92.70;;;17.84;57.73;95421.91;5024774;28;20488;-63
2023/09/29 00:27:23;;;;;;;7.33;3.60;;;17.40;92.60;;;17.83;57.58;95424.72;5021515;28;20540;-63
2023/09/29 00:29:50;;;;;;;10.50;3.53;;;17.40;92.60;;;17.82;57.48;95423.91;5024262;28;20481;-59
2023/09/29 00:32:19;;;;;;;10.33;3.23;;;17.40;92.60;;;17.81;57.47;95421.44;5023593;28;20559;-63
2023/09/29 00:34:46;;;;;;;13.83;3.70;;;17.40;92.60;;;17.78;57.77;95433.22;5021070;28;20481;-57
2023/09/29 00:37:14;;;;;;;13.73;3.40;;;17.40;92.60;;;17.77;57.49;95418.28;5024386;28;20541;-59
2023/09/29 00:39:42;;;;;;;11.77;2.97;;;17.40;92.60;;;17.77;58.18;95431.59;5023771;28;20472;-58
2023/09/29 00:42:09;;;;;;;10.03;3.07;;;17.40;92.60;;;17.74;57.86;95430.09;5019969;28;20460;-60
2023/09/29 00:44:36;;;;;;;7.07;3.90;;;17.40;92.60;;;17.71;57.92;95417.13;5019701;28;20476;-59
2023/09/29 00:47:05;;;;;;;6.23;3.13;;;17.30;92.60;;;17.72;57.84;95423.25;5020954;28;20466;-59
2023/09/29 00:49:34;;;;;;;8.17;3.30;;;17.30;92.70;;;17.70;57.81;95431.41;5020122;28;20949;-58
2023/09/29 00:52:02;;;;;;;6.43;3.00;;;17.30;92.60;;;17.70;57.62;95420.78;5018409;28;20468;-60
2023/09/29 00:54:29;;;;;;;15.33;3.80;;;17.30;92.30;;;17.67;57.33;95415.78;5022836;28;20480;-60
2023/09/29 00:56:58;;;;;;;10.50;3.30;;;17.30;92.10;;;17.67;57.47;95412.31;5023308;28;21015;-59
2023/09/29 00:59:25;;;;;;;10.57;3.60;;;17.30;92.10;;;17.67;57.54;95420.28;5017537;28;20569;-62
2023/09/29 01:01:52;;;;;;;7.77;3.00;;;17.30;92.40;;;17.67;57.48;95417.63;5023871;28;20450;-63
2023/09/29 01:04:19;;;;;;;13.43;3.90;;;17.30;92.60;;;17.63;57.91;95413.66;5023241;28;21078;-62
2023/09/29 01:06:49;;;;;;;13.33;3.00;;;17.30;92.60;;;17.62;57.44;95415.50;5019290;28;20492;-58
2023/09/29 01:09:16;;;;;;;11.33;3.37;;;17.30;92.60;;;17.65;58.07;95422.31;5025193;28;20473;-59
2023/09/29 01:11:43;;;;;;;10.53;3.50;;;17.20;92.80;;;17.65;58.14;95422.31;5024806;28;20518;-62
2023/09/29 01:14:12;;;;;;;10.13;3.40;;;17.20;92.80;;;17.63;57.54;95424.28;5023518;28;21016;-59
2023/09/29 01:16:39;;;;;;;9.67;3.07;;;17.20;92.80;;;17.63;58.08;95421.63;5018749;28;20460;-61
2023/09/29 01:19:11;;;;;;;5.93;3.37;;;17.20;92.80;;;17.61;57.81;95419.13;5022906;28;20469;-61
2023/09/29 01:21:40;;;;;;;18.43;3.80;;;17.20;92.70;;;17.59;57.49;95412.34;5020053;28;20572;-60
2023/09/29 01:24:09;;;;;;;24.83;3.53;;;17.20;92.90;;;17.58;57.31;95416.00;5022196;28;20839;-57
2023/09/29 01:26:37;;;;;;;6.67;3.00;;;17.20;92.50;;;17.56;57.48;95410.84;5018137;28;20522;-61
2023/09/29 01:29:05;;;;;;;9.87;2.90;;;17.20;92.50;;;17.56;57.79;95419.66;5018270;28;20489;-60
2023/09/29 01:31:34;;;;;;;15.37;3.27;;;17.20;92.50;;;17.56;57.10;95427.63;5023696;28;20523;-58
2023/09/29 01:34:04;;;;;;;3.27;2.50;;;17.10;92.30;;;17.54;57.01;95413.69;5020374;28;20482;-59
2023/09/29 01:36:32;;;;;;;7.80;3.40;;;17.10;92.20;;;17.53;56.97;95422.66;5018461;28;20460;-57
2023/09/29 01:38:59;;;;;;;4.53;3.17;;;17.10;92.20;;;17.54;57.14;95420.84;5027019;28;20790;-56
2023/09/29 01:41:29;;;;;;;17.63;2.97;;;17.10;92.10;;;17.52;57.08;95415.69;5023018;28;20510;-61
2023/09/29 01:43:56;;;;;;;12.03;3.40;;;17.10;92.20;;;17.50;57.11;95419.50;5024121;28;20543;-62
2023/09/29 01:46:24;;;;;;;6.80;2.87;;;17.10;92.40;;;17.47;57.39;95423.31;5018154;28;20489;-63
2023/09/29 01:48:51;;;;;;;6.93;4.17;;;17.10;92.50;;;17.47;57.27;95419.84;5021622;28;20457;-61
2023/09/29 01:51:19;;;;;;;15.43;3.53;;;17.10;92.50;;;17.44;57.59;95417.50;5023167;28;20841;-61
2023/09/29 01:53:48;;;;;;;13.90;4.53;;;17.00;92.40;;;17.43;57.47;95419.34;5017195;28;20867;-61
2023/09/29 01:56:21;;;;;;;11.00;3.10;;;17.00;92.40;;;17.43;58.08;95413.19;5020351;28;20536;-57
2023/09/29 01:58:49;;;;;;;6.70;3.13;;;17.10;92.60;;;17.39;57.42;95416.19;5016853;28;20482;-58
2023/09/29 02:01:17;;;;;;;12.23;3.10;;;17.00;92.60;;;17.39;57.78;95424.16;5017116;28;21044;-61
2023/09/29 02:03:48;;;;;;;5.47;3.30;;;17.00;92.40;;;17.35;57.30;95417.53;5018227;28;20465;-61
2023/09/29 02:06:17;;;;;;;10.00;3.53;;;17.00;92.40;;;17.35;57.08;95422.00;5021663;28;20508;-61
2023/09/29 02:08:44;;;;;;;8.00;2.93;;;17.00;92.40;;;17.34;57.23;95412.38;5022361;28;20850;-57
2023/09/29 02:11:12;;;;;;;10.63;3.03;;;16.90;92.40;;;17.32;57.34;95415.22;5016366;28;20508;-61
2023/09/29 02:13:40;;;;;;;8.80;3.80;;;16.90;92.40;;;17.33;57.95;95416.84;5024794;28;20460;-57
2023/09/29 02:16:15;;;;;;;6.33;3.40;;;17.00;92.60;;;17.34;57.74;95420.38;5022808;28;20448;-62
2023/09/29 02:18:42;;;;;;;3.63;3.33;;;16.90;93.00;;;17.34;57.91;95423.03;5022591;28;20965;-57
2023/09/29 02:21:09;;;;;;;5.70;3.13;;;16.90;92.60;;;17.34;57.76;95423.84;5022750;28;20452;-58
2023/09/29 02:23:38;;;;;;;6.17;3.80;;;17.00;92.40;;;17.34;57.75;95426.50;5023173;28;20457;-57
2023/09/29 02:26:08;;;;;;;7.90;3.20;;;17.00;92.80;;;17.36;58.03;95421.03;5024284;28;20558;-60
2023/09/29 02:28:38;;;;;;;13.53;3.20;;;17.00;92.70;;;17.36;57.64;95419.19;5020599;28;20449;-61
2023/09/29 02:31:13;;;;;;;9.27;3.37;;;17.00;92.80;;;17.39;57.77;95423.34;5017713;28;20527;-60
2023/09/29 02:33:41;;;;;;;9.93;3.77;;;17.00;92.90;;;17.38;57.67;95422.53;5019357;28;20444;-58
2023/09/29 02:36:08;;;;;;;19.20;3.40;;;17.00;92.90;;;17.40;57.75;95427.66;5022040;28;20795;-62
2023/09/29 02:38:36;;;;;;;9.30;3.83;;;17.00;92.80;;;17.41;57.84;95425.84;5018970;28;20506;-57
2023/09/29 02:41:03;;;;;;;14.73;2.70;;;17.00;92.70;;;17.41;57.93;95426.66;5022106;28;20468;-58
2023/09/29 02:43:31;;;;;;;13.40;2.90;;;17.00;92.70;;;17.42;57.90;95427.50;5021432;28;20453;-60
2023/09/29 02:45:59;;;;;;;7.03;3.43;;;17.00;92.60;;;17.42;56.90;95430.97;5021985;28;20588;-59
2023/09/29 02:48:27;;;;;;;8.10;3.73;;;17.00;92.30;;;17.40;57.01;95435.66;5022524;28;20450;-60
2023/09/29 02:50:55;;;;;;;18.10;3.53;;;17.00;92.20;;;17.39;57.19;95439.28;5022549;28;20568;-58
2023/09/29 02:53:22;;;;;;;15.57;3.77;;;17.00;92.40;;;17.39;57.75;95437.47;5020835;28;20493;-60
2023/09/29 02:55:51;;;;;;;12.57;3.73;;;17.00;92.40;;;17.39;57.79;95433.97;5024586;28;20496;-61
2023/09/29 02:58:19;;;;;;;10.17;3.53;;;17.00;92.40;;;17.40;57.84;95430.31;5017665;28;20457;-61
2023/09/29 03:00:47;;;;;;;32.17;4.50;;;17.00;92.50;;;17.41;57.65;95444.44;5025262;28;20499;-56
2023/09/29 03:03:14;;;;;;;17.53;4.70;;;17.00;92.60;;;17.39;58.07;95445.44;5023124;28;20519;-61
2023/09/29 03:05:43;;;;;;;15.27;3.70;;;17.00;92.70;;;17.41;57.91;95439.94;5024816;28;21044;-61
2023/09/29 03:08:10;;;;;;;13.10;4.13;;;17.00;92.80;;;17.41;57.87;95439.94;5025647;28;21071;-56
2023/09/29 03:10:38;;;;;;;7.10;3.80;;;17.00;92.90;;;17.42;57.87;95438.13;5022986;28;20492;-62
2023/09/29 03:13:05;;;;;;;9.53;3.30;;;17.00;92.80;;;17.43;57.48;95437.13;5027827;28;20782;-60
2023/09/29 03:15:32;;;;;;;4.27;3.00;;;17.00;92.80;;;17.43;57.95;95440.63;5021095;28;21005;-57
2023/09/29 03:18:00;;;;;;;22.37;4.17;;;17.00;92.90;;;17.43;58.00;95435.31;5027636;28;20445;-58
2023/09/29 03:20:27;;;;;;;15.30;3.70;;;17.00;92.90;;;17.44;58.03;95442.28;5037954;28;20508;-60
2023/09/29 03:22:58;;;;;;;13.13;4.13;;;17.00;93.00;;;17.44;57.87;95447.59;5033096;28;20448;-57
2023/09/29 03:25:26;;;;;;;10.10;3.87;;;17.00;92.90;;;17.43;57.89;95445.94;5021898;28;20492;-59
2023/09/29 03:27:53;;;;;;;6.70;3.33;;;17.00;92.90;;;17.44;57.64;95444.94;5023340;28;20541;-56
2023/09/29 03:30:21;;;;;;;12.70;3.13;;;17.00;93.00;;;17.43;57.65;95443.28;5027973;28;20479;-56
2023/09/29 03:32:49;;;;;;;11.80;4.40;;;17.00;93.00;;;17.42;58.04;95446.13;5020497;28;21020;-61
2023/09/29 03:35:16;;;;;;;10.63;3.43;;;17.00;93.10;;;17.41;58.17;95439.13;5022194;28;20469;-61
2023/09/29 03:37:44;;;;;;;7.27;3.63;;;17.00;93.10;;;17.39;57.77;95444.63;5024099;28;20468;-61
2023/09/29 03:40:14;;;;;;;8.17;3.70;;;17.00;93.10;;;17.37;58.14;95447.44;5026627;28;20468;-62
2023/09/29 03:42:42;;;;;;;8.77;4.00;;;17.00;93.10;;;17.36;57.78;95451.09;5020108;28;20467;-61
2023/09/29 03:45:11;;;;;;;14.10;4.37;;;17.00;93.10;;;17.35;58.15;95453.91;5026935;28;20531;-60
2023/09/29 03:47:38;;;;;;;12.50;3.70;;;17.00;93.10;;;17.36;58.29;95447.59;5025451;28;20519;-61
2023/09/29 03:50:11;;;;;;;18.37;4.40;;;17.00;93.20;;;17.34;57.84;95445.13;5024108;28;21106;-61
2023/09/29 03:52:38;;;;;;;15.87;4.03;;;17.00;93.20;;;17.34;58.10;95446.97;5024563;28;20471;-58
2023/09/29 03:55:09;;;;;;;21.97;4.57;;;17.00;93.20;;;17.34;58.27;95439.81;5021251;28;20470;-58
2023/09/29 03:57:41;;;;;;;13.00;5.03;;;17.00;93.20;;;17.33;58.37;95442.63;5023601;28;20459;-57
2023/09/29 04:00:12;;;;;;;7.50;4.53;;;17.00;93.10;;;17.32;58.07;95447.13;5022237;28;20485;-56
2023/09/29 04:02:41;;;;;;;9.73;6.07;;;16.90;93.20;;;17.31;58.48;95440.13;5020390;28;20520;-59
2023/09/29 04:05:09;;;;;;;16.13;5.83;;;16.90;93.20;;;17.30;57.89;95440.31;5015829;28;20556;-58
2023/09/29 04:07:37;;;;;;;21.63;4.67;;;16.90;93.20;;;17.30;58.08;95448.28;5023589;28;20547;-61
2023/09/29 04:10:05;;;;;;;20.20;5.90;;;16.90;93.30;;;17.29;58.15;95428.00;5022418;28;20556;-61
2023/09/29 04:12:32;;;;;;;8.33;4.00;;;16.90;93.40;;;17.29;58.44;95441.28;5020831;28;20988;-59
2023/09/29 04:15:00;;;;;;;11.17;4.53;;;16.90;93.30;;;17.28;58.15;95440.47;5026019;28;20537;-58
2023/09/29 04:17:28;;;;;;;17.90;5.03;;;16.90;93.40;;;17.28;58.51;95445.78;5022502;28;20499;-63
2023/09/29 04:19:55;;;;;;;8.37;4.80;;;16.90;93.40;;;17.30;58.50;95445.63;5026200;28;20541;-57
2023/09/29 04:22:24;;;;;;;10.70;4.73;;;16.90;93.50;;;17.29;58.38;95450.13;5022584;28;20488;-61
2023/09/29 04:24:51;;;;;;;8.97;4.20;;;16.90;93.50;;;17.29;58.29;95444.78;5022857;28;20501;-61
2023/09/29 04:27:18;;;;;;;17.47;4.00;;;16.90;93.20;;;17.27;58.07;95443.28;5018613;28;20573;-58
2023/09/29 04:29:46;;;;;;;20.20;4.80;;;16.90;93.20;;;17.27;58.00;95440.63;5022932;28;20539;-57
2023/09/29 04:32:14;;;;;;;11.93;5.50;;;16.90;93.40;;;17.30;58.17;95442.97;5022953;28;20456;-60
2023/09/29 04:34:42;;;;;;;18.73;5.93;;;16.90;93.30;;;17.30;57.96;95448.28;5019481;28;20477;-58
2023/09/29 04:37:09;;;;;;;18.60;5.13;;;16.90;93.30;;;17.32;58.06;95451.59;5019137;28;20910;-59
2023/09/29 04:39:37;;;;;;;25.10;6.30;;;16.90;93.40;;;17.30;57.95;95450.94;5026019;28;21110;-58
2023/09/29 04:42:05;;;;;;;27.47;6.10;;;17.00;93.50;;;17.33;58.50;95458.56;5022941;28;20448;-61
2023/09/29 04:44:32;;;;;;;23.00;6.47;;;16.90;93.50;;;17.31;58.24;95455.25;5019640;28;20557;-58
2023/09/29 04:47:00;;;;;;;22.97;6.93;;;16.90;93.20;;;17.30;57.99;95450.94;5019880;28;20500;-58
2023/09/29 04:49:29;;;;;;;28.83;6.23;;;16.90;93.30;;;17.30;58.35;95456.25;5023236;28;20465;-60
2023/09/29 04:51:56;;;;;;;31.03;6.87;;;16.90;93.60;;;17.31;58.74;95464.06;5023258;28;20457;-57
2023/09/29 04:54:24;;;;;;;15.03;6.17;;;16.90;93.80;;;17.35;58.04;95465.41;5019989;28;21013;-60
2023/09/29 04:56:51;;;;;;;21.70;7.00;;;17.00;93.60;;;17.34;58.49;95466.38;5020731;28;20460;-56
2023/09/29 04:59:19;;;;;;;21.37;6.30;;;17.00;93.70;;;17.37;58.32;95466.06;5022284;28;20900;-58
2023/09/29 05:01:46;;;;;;;34.13;6.87;;;17.00;93.60;;;17.40;58.46;95475.53;5022101;28;20518;-58
2023/09/29 05:04:13;;;;;;;25.37;6.20;;;17.00;93.60;;;17.42;57.82;95472.72;5019739;28;20551;-61
2023/09/29 05:06:43;;;;;;;26.33;6.50;;;17.00;93.50;;;17.42;58.24;95475.38;5021402;28;21092;-56
2023/09/29 05:09:11;;;;;;;29.57;8.10;;;17.00;93.30;;;17.41;57.88;95474.53;5021152;28;20477;-60
2023/09/29 05:11:38;;;;;;;27.33;7.13;;;17.00;93.20;;;17.38;57.62;95469.53;5018437;28;20463;-59
2023/09/29 05:14:06;;;;;;;30.03;7.43;;;17.00;93.10;;;17.39;57.95;95469.38;5026609;28;20501;-61
2023/09/29 05:16:33;;;;;;;23.83;6.07;;;17.00;93.10;;;17.35;57.76;95465.41;5019874;28;20460;-61
2023/09/29 05:19:01;;;;;;;23.93;5.93;;;17.00;93.10;;;17.38;57.39;95472.19;5020638;28;20532;-60
2023/09/29 05:21:28;;;;;;;23.57;5.47;;;17.00;93.00;;;17.37;57.39;95475.88;5021398;28;20485;-57
2023/09/29 05:23:56;;;;;;;20.87;5.00;;;17.00;92.90;;;17.37;57.71;95474.03;5019720;28;20883;-60
2023/09/29 05:26:24;;;;;;;20.67;5.47;;;17.00;92.80;;;17.38;57.68;95480.16;5020377;28;20488;-63
2023/09/29 05:28:53;;;;;;;22.27;5.23;;;17.00;92.80;;;17.40;57.07;95488.84;5021187;28;20452;-57
2023/09/29 05:31:20;;;;;;;19.50;5.00;;;17.00;92.70;;;17.42;57.23;95476.19;5022175;28;20493;-57
2023/09/29 05:33:48;;;;;;;7.10;4.70;;;17.00;92.40;;;17.45;57.41;95480.34;5024530;28;20458;-60
2023/09/29 05:36:15;;;;;;;15.97;5.20;;;17.00;92.40;;;17.48;56.74;95483.50;5022202;28;20460;-62
2023/09/29 05:38:42;;;;;;;13.40;4.83;;;17.10;92.50;;;17.53;56.96;95478.50;5020919;28;20453;-58
2023/09/29 05:41:11;;;;;;;20.27;5.33;;;17.20;92.50;;;17.61;56.65;95490.13;5018823;28;20453;-60
2023/09/29 05:43:38;;;;;;;13.23;5.80;;;17.20;92.30;;;17.69;57.00;95493.63;5024390;28;20453;-56
2023/09/29 05:46:06;;;;;;;17.73;5.17;;;17.30;92.30;;;17.82;56.92;95494.94;5020197;28;20476;-61
2023/09/29 05:48:33;;;;;;;15.33;6.50;;;17.40;92.20;;;17.94;56.60;95484.78;5021504;28;20638;-61
2023/09/29 05:51:00;;;;;;;20.17;7.10;;;17.50;92.00;;;18.13;55.69;95494.22;5022420;28;20487;-60
2023/09/29 05:53:28;;;;;;;42.07;9.23;;;17.70;91.80;;;18.25;55.27;95493.69;5021064;28;20464;-60
2023/09/29 05:55:55;;;;;;;18.80;8.30;;;17.80;91.40;;;18.35;55.49;95484.66;5018531;28;20469;-61
2023/09/29 05:58:23;;;;;;;20.00;7.20;;;17.90;91.10;;;18.48;54.59;95489.41;5021225;28;20880;-58
2023/09/29 06:00:51;;;;;;;24.77;8.50;;;18.00;90.70;;;18.57;54.43;95494.53;5018333;28;20903;-61
2023/09/29 06:03:18;;;;;;;35.57;9.60;;;18.10;90.60;;;18.69;54.74;95491.50;5021060;28;20464;-56
2023/09/29 06:05:45;;;;;;;36.53;11.97;;;18.20;90.30;;;18.77;54.45;95492.25;5021238;28;21004;-58
2023/09/29 06:08:13;;;;;;;27.30;12.17;;;18.30;90.20;;;18.88;53.77;95492.91;5017245;28;20485;-57
2023/09/29 06:10:40;;;;;;;17.37;12.37;;;18.40;90.10;;;19.01;54.12;95492.31;5020787;28;20988;-57
2023/09/29 06:13:08;;;;;;;32.93;13.67;;;18.50;90.00;;;19.12;54.09;95498.09;5017779;28;20480;-61
2023/09/29 06:15:36;;;;;;;32.33;14.47;;;18.60;89.90;;;19.26;53.97;95493.00;5018058;28;20837;-57
2023/09/29 06:18:05;;;;;;;18.17;10.10;;;18.80;89.50;;;19.35;53.83;95487.41;5017551;28;20457;-58
2023/09/29 06:20:32;;;;;;;19.37;9.07;;;18.90;89.20;;;19.45;53.41;95489.81;5016221;28;20477;-55
2023/09/29 06:23:00;;;;;;;30.30;10.67;;;19.00;88.50;;;19.57;53.28;95492.09;5017748;28;20449;-61
2023/09/29 06:25:27;;;;;;;18.43;10.00;;;19.10;88.10;;;19.67;52.63;95487.31;5021136;28;20554;-57
2023/09/29 06:27:54;;;;;;;20.90;9.90;;;19.20;87.40;;;19.78;52.42;95491.41;5017408;28;20493;-57
2023/09/29 06:30:21;;;;;;;15.93;10.30;;;19.30;86.90;;;19.88;52.21;95494.66;5020271;28;20498;-57
2023/09/29 06:32:50;;;;;;;36.53;10.80;;;19.40;86.20;;;19.99;52.11;95502.19;5019734;28;20897;-57
2023/09/29 06:35:17;;;;;;;27.53;9.00;;;19.50;86.10;;;20.15;52.23;95500.38;5019084;28;20478;-58
2023/09/29 06:37:45;;;;;;;26.40;7.67;;;19.60;85.80;;;20.36;51.57;95494.31;5021014;28;20453;-61
2023/09/29 06:40:13;;;;;;;36.07;9.50;;;19.90;85.70;;;20.58;51.22;95501.34;5021225;28;20477;-61
2023/09/29 06:42:40;;;;;;;32.47;9.47;;;20.00;84.90;;;20.82;50.87;95498.56;5020220;28;20511;-61
2023/09/29 06:45:09;;;;;;;19.40;7.93;;;20.30;84.60;;;21.04;50.77;95494.94;5021771;28;20480;-61
2023/09/29 06:47:36;;;;;;;33.13;9.80;;;20.50;83.80;;;21.28;49.96;95492.91;5020063;28;20490;-56
2023/09/29 06:50:10;;;;;;;20.03;7.57;;;20.70;83.00;;;21.54;49.82;95488.84;5019753;28;20495;-57
2023/09/29 06:52:37;;;;;;;34.13;7.40;;;20.90;82.30;;;21.88;49.12;95501.47;5021423;28;20527;-62
2023/09/29 06:55:06;;;;;;;32.37;7.23;;;21.20;81.10;;;22.14;48.64;95490.09;5018385;28;20481;-56
2023/09/29 06:57:33;;;;;;;34.50;6.33;;;21.50;79.60;;;22.46;48.00;95487.81;5020504;28;20890;-61
2023/09/29 07:00:03;;;;;;;20.27;6.20;;;21.80;78.30;;;22.82;46.98;95489.44;5020476;28;20535;-62
2023/09/29 07:02:31;;;;;;;24.70;6.27;;;22.10;77.20;;;23.23;45.94;95488.53;5018281;28;20458;-57
2023/09/29 07:04:58;;;;;;;14.90;7.20;;;22.50;75.90;;;23.60;46.02;95483.63;5020413;28;20539;-57
2023/09/29 07:07:26;;;;;;;17.43;6.00;;;22.80;74.80;;;23.99;45.39;95484.66;5017998;28;20547;-59
2023/09/29 07:09:54;;;;;;;21.53;6.30;;;23.20;74.40;;;24.44;45.28;95493.88;5019939;28;20663;-60
2023/09/29 07:12:21;;;;;;;10.13;6.70;;;23.70;74.10;;;24.98;44.37;95481.91;5017144;28;20459;-58
2023/09/29 07:14:48;;;;;;;16.80;5.43;;;24.10;73.00;;;25.44;43.71;95480.00;5019785;28;20465;-58
2023/09/29 07:17:15;;;;;;;30.03;5.10;;;24.70;71.70;;;25.75;42.60;95479.13;5019744;28;20457;-60
2023/09/29 07:19:43;;;;;;;27.30;6.07;;;25.00;69.20;;;25.99;42.51;95484.75;5021051;28;20480;-56
2023/09/29 07:22:10;;;;;;;13.93;4.53;;;25.30;68.10;;;26.27;41.91;95484.31;5018587;28;20929;-61
2023/09/29 07:24:41;;;;;;;23.07;6.17;;;25.60;67.00;;;26.73;41.36;95495.63;5019504;28;20483;-56
2023/09/29 07:27:09;;;;;;;18.50;6.27;;;26.10;66.70;;;27.21;40.42;95490.47;5022885;28;20495;-61
2023/09/29 07:29:36;;;;;;;16.03;4.93;;;26.50;65.00;;;27.55;39.56;95492.47;5022206;28;20476;-58
2023/09/29 07:32:04;;;;;;;18.07;4.60;;;26.90;62.70;;;27.72;38.71;95500.75;5022615;28;20461;-63
2023/09/29 07:34:32;;;;;;;17.97;5.60;;;27.10;61.30;;;27.76;38.77;95498.38;5023075;28;20587;-57
2023/09/29 07:36:59;;;;;;;17.67;4.33;;;27.30;60.10;;;27.74;38.29;95497.81;5024248;28;20514;-61
2023/09/29 07:39:26;;;;;;;19.10;5.90;;;27.20;59.00;;;27.68;37.72;95502.25;5023969;28;20514;-57
2023/09/29 07:41:55;;;;;;;21.50;5.80;;;27.20;58.00;;;27.63;37.67;95495.91;5026693;28;20483;-57
2023/09/29 07:44:22;;;;;;;20.03;4.83;;;27.20;58.00;;;27.60;37.70;95499.09;5021730;28;20487;-59
2023/09/29 07:46:53;;;;;;;12.70;3.87;;;27.10;58.00;;;27.58;37.73;95496.59;5022042;28;20956;-60
2023/09/29 07:49:23;;;;;;;18.63;5.10;;;27.10;57.40;;;27.53;37.18;95499.19;5025124;28;20472;-62
2023/09/29 07:51:57;;;;;;;15.70;4.60;;;27.00;57.00;;;27.41;36.83;95501.84;5022183;28;20508;-62
2023/09/29 07:54:25;;;;;;;18.87;4.60;;;26.90;56.50;;;27.25;36.56;95497.06;5021847;28;20525;-60
2023/09/29 07:56:52;;;;;;;16.63;3.90;;;26.80;56.00;;;27.13;36.89;95499.72;5023255;28;20532;-58
2023/09/29 07:59:21;;;;;;;19.03;4.20;;;26.60;56.20;;;27.01;36.38;95492.38;5022039;28;21131;-57
2023/09/29 08:01:51;;;;;;;18.03;4.10;;;26.50;55.90;;;26.92;36.87;95495.63;5024622;28;21027;-61
2023/09/29 08:04:18;;;;;;;17.87;4.37;;;26.40;56.30;;;26.83;36.76;95495.94;5023002;28;20516;-60
2023/09/29 08:06:46;;;;;;;14.37;5.00;;;26.30;55.80;;;26.73;36.56;95494.81;5021328;28;20928;-62
2023/09/29 08:09:13;;;;;;;25.77;4.87;;;26.20;56.00;;;26.66;36.58;95494.88;5024155;28;20488;-57
2023/09/29 08:11:42;;;;;;;8.07;4.20;;;26.10;55.90;;;26.56;36.69;95499.97;5022178;28;20540;-57
2023/09/29 08:14:09;;;;;;;16.63;3.40;;;26.00;55.50;;;26.37;36.33;95499.97;5021455;28;20471;-60
2023/09/29 08:16:38;;;;;;;11.53;4.20;;;25.90;55.20;;;26.23;36.31;95496.56;5029504;28;20460;-60
2023/09/29 08:19:05;;;;;;;27.20;3.80;;;25.70;55.00;;;26.09;36.23;95484.28;5026467;28;20476;-63
2023/09/29 08:21:33;;;;;;;12.00;3.40;;;25.60;55.00;;;26.06;36.35;95495.50;5018386;28;20456;-61
2023/09/29 08:24:03;;;;;;;13.50;4.97;;;25.50;55.20;;;26.04;36.36;95497.56;5021724;28;20496;-62
2023/09/29 08:26:31;;;;;;;19.67;4.30;;;25.40;55.60;;;25.97;36.53;95491.41;5025100;28;20825;-61
2023/09/29 08:29:00;;;;;;;23.63;4.90;;;25.40;55.30;;;25.91;36.50;95487.72;5024033;28;20497;-62
2023/09/29 08:31:27;;;;;;;14.80;4.70;;;25.30;55.60;;;25.91;36.78;95482.31;5023887;28;20463;-60
2023/09/29 08:33:56;;;;;;;22.50;4.07;;;25.30;55.50;;;25.89;36.64;95484.44;5024769;28;21002;-61
2023/09/29 08:36:23;;;;;;;19.37;4.23;;;25.30;55.60;;;25.75;35.94;95487.22;5020518;28;20544;-58
2023/09/29 08:38:50;;;;;;;20.93;5.00;;;25.20;55.10;;;25.59;36.45;95490.44;5021594;28;20451;-62
2023/09/29 08:41:18;;;;;;;17.93;4.10;;;25.00;54.70;;;25.45;36.24;95478.13;5024162;28;20457;-59
2023/09/29 08:43:46;;;;;;;18.47;3.70;;;24.90;55.10;;;25.23;35.56;95486.53;5017385;28;20457;-59
2023/09/29 08:46:13;;;;;;;10.30;3.30;;;24.70;54.10;;;25.01;36.17;95489.53;5022598;28;20464;-62
2023/09/29 08:48:41;;;;;;;18.73;4.10;;;24.50;54.30;;;24.79;36.53;95483.66;5023183;28;20489;-63
2023/09/29 08:51:10;;;;;;;14.40;4.60;;;24.30;54.80;;;24.61;36.74;95475.44;5020806;28;20498;-59
2023/09/29 08:53:38;;;;;;;19.03;3.80;;;24.10;54.90;;;24.43;36.93;95481.47;5024574;28;20460;-58
2023/09/29 08:56:11;;;;;;;8.43;4.33;;;24.00;55.00;;;24.38;37.18;95481.28;5022065;28;21201;-60
2023/09/29 08:58:38;;;;;;;11.40;4.70;;;23.90;55.10;;;24.38;36.23;95487.47;5019317;28;20975;-60
2023/09/29 09:01:05;;;;;;;14.27;3.53;;;23.80;54.80;;;24.47;36.54;95471.94;5023926;28;20468;-62
2023/09/29 09:03:33;;;;;;;25.23;5.20;;;23.90;55.40;;;24.63;36.25;95476.06;5019798;28;20523;-60
2023/09/29 09:06:00;;;;;;;22.73;12.33;;;24.00;55.40;;;24.79;36.13;95475.59;5020059;28;21024;-63
2023/09/29 09:08:29;;;;;;;32.30;12.40;;;24.20;54.70;;;25.04;36.23;95478.34;5019296;28;20546;-61
2023/09/29 09:10:59;;;;;;;20.90;5.00;;;24.40;54.80;;;25.22;35.00;95474.94;5023492;28;20515;-63
2023/09/29 09:13:27;;;;;;;17.57;6.20;;;24.50;54.20;;;25.35;35.33;95470.53;5019902;28;20535;-58
2023/09/29 09:15:57;;;;;;;7.07;4.07;;;24.70;53.60;;;25.55;34.75;95473.91;5019825;28;20559;-59
2023/09/29 09:18:27;;;;;;;14.03;4.60;;;24.90;53.10;;;25.74;34.53;95471.28;5025356;28;20449;-58
2023/09/29 09:20:54;;;;;;;18.17;4.50;;;25.10;53.00;;;25.95;34.48;95470.88;5021290;28;20509;-62
2023/09/29 09:23:22;;;;;;;11.90;3.40;;;25.30;53.30;;;26.14;34.38;95475.53;5023737;28;20461;-60
2023/09/29 09:25:51;;;;;;;17.23;3.60;;;25.50;52.30;;;26.33;33.91;95469.09;5021005;28;20490;-59
2023/09/29 09:28:21;;;;;;;5.10;3.17;;;25.60;52.00;;;26.53;33.76;95470.75;5021151;28;20574;-59
2023/09/29 09:30:51;;;;;;;7.30;3.20;;;25.80;51.70;;;26.73;33.12;95465.13;5020207;28;20847;-60
2023/09/29 09:33:21;;;;;;;13.63;3.60;;;26.00;51.10;;;26.80;32.62;95469.41;5019606;28;21036;-62
2023/09/29 09:35:49;;;;;;;6.63;3.53;;;26.20;50.60;;;26.89;32.86;95466.38;5021855;28;20479;-59
2023/09/29 09:38:16;;;;;;;12.33;3.10;;;26.20;50.30;;;26.90;32.60;95468.03;5018856;28;20448;-60
2023/09/29 09:40:44;;;;;;;13.40;3.07;;;26.30;50.10;;;26.94;32.64;95470.06;5020454;28;20468;-61
2023/09/29 09:43:13;;;;;;;11.93;2.87;;;26.30;50.10;;;27.00;32.62;95466.44;5020505;28;20449;-60
2023/09/29 09:45:43;;;;;;;19.23;3.70;;;26.40;50.00;;;27.06;32.43;95456.59;5019770;28;20530;-58
2023/09/29 09:48:14;;;;;;;11.77;2.97;;;26.40;50.00;;;27.09;32.32;95466.94;5018801;28;20492;-59
2023/09/29 09:50:45;;;;;;;5.93;3.17;;;26.50;49.60;;;27.08;32.04;95468.00;5024917;28;20497;-60
2023/09/29 09:53:13;;;;;;;11.30;2.77;;;26.50;49.50;;;27.16;32.22;95464.16;5021584;28;20449;-60
2023/09/29 09:55:45;;;;;;;5.93;2.80;;;26.50;49.00;;;27.33;31.45;95461.66;5018149;28;21044;-61
2023/09/29 09:58:16;;;;;;;8.03;2.63;;;26.70;48.70;;;27.58;31.60;95468.78;5017272;28;20453;-62
2023/09/29 10:00:46;;;;;;;6.33;2.53;;;26.90;48.70;;;27.84;31.28;95460.22;5021851;28;20476;-61
2023/09/29 10:03:15;;;;;;;3.67;2.87;;;27.10;48.30;;;28.18;30.45;95457.78;5017574;28;20460;-62
2023/09/29 10:05:49;;;;;;;5.33;3.10;;;27.40;48.20;;;28.53;30.41;95456.91;5019106;28;20545;-61
2023/09/29 10:08:29;;;;;;;6.37;2.40;;;27.80;48.00;;;28.78;29.99;95461.22;5017707;28;20602;-62
2023/09/29 10:11:10;;;;;;;5.77;2.87;;;28.10;46.80;;;28.87;29.02;95459.78;5019636;28;20561;-63
2023/09/29 10:13:40;;;;;;;5.47;3.40;;;28.20;45.50;;;28.81;29.57;95460.75;5025454;28;20455;-62
2023/09/29 10:16:07;;;;;;;20.90;4.10;;;28.20;45.90;;;28.73;29.81;95453.00;5017415;28;20452;-63